createdAt,value
2019-01-25T00:01:23.660Z,54.35
2019-01-25T00:03:52.563Z,59.90
2019-01-25T00:06:21.634Z,42.05
2019-01-25T00:08:50.789Z,44.75
2019-01-25T00:11:20.021Z,45.43
2019-01-25T00:13:49.018Z,48.58
2019-01-25T00:16:18.054Z,49.50
2019-01-25T00:18:46.984Z,48.13
2019-01-25T00:21:16.023Z,51.33
2019-01-25T00:23:45.183Z,42.17
2019-01-25T00:26:14.071Z,53.73
2019-01-25T00:28:42.980Z,44.50
2019-01-25T00:31:11.822Z,41.70
2019-01-25T00:33:40.977Z,53.52
2019-01-25T00:36:09.967Z,46.58
2019-01-25T00:38:38.814Z,36.48
2019-01-25T00:41:07.694Z,53.42
2019-01-25T00:43:36.737Z,46.28
2019-01-25T00:46:05.749Z,45.40
2019-01-25T00:48:34.612Z,50.63
2019-01-25T00:51:03.495Z,42.00
2019-01-25T00:53:32.668Z,50.45
2019-01-25T00:56:01.831Z,52.70
2019-01-25T00:58:31.046Z,48.42
2019-01-25T01:01:00.228Z,47.58
2019-01-25T01:03:32.172Z,46.42
2019-01-25T01:06:01.460Z,42.95
2019-01-25T01:08:30.690Z,44.20
2019-01-25T01:10:59.650Z,37.08
2019-01-25T01:13:28.764Z,38.30
2019-01-25T01:15:57.799Z,44.85
2019-01-25T01:18:28.036Z,41.40
2019-01-25T01:20:57.006Z,43.50
2019-01-25T01:23:27.246Z,41.48
2019-01-25T01:25:56.242Z,42.35
2019-01-25T01:28:25.548Z,43.05
2019-01-25T01:30:54.714Z,40.08
2019-01-25T01:33:23.917Z,45.73
2019-01-25T01:35:52.868Z,40.60
2019-01-25T01:38:22.003Z,45.75
2019-01-25T01:40:51.240Z,39.00
2019-01-25T01:43:20.504Z,54.33
2019-01-25T01:45:49.513Z,42.98
2019-01-25T01:48:18.533Z,44.55
2019-01-25T01:50:47.760Z,41.80
2019-01-25T01:53:16.960Z,46.83
2019-01-25T01:55:47.371Z,35.43
2019-01-25T01:58:16.524Z,38.65
2019-01-25T02:00:45.412Z,46.30
2019-01-25T02:03:24.549Z,41.13
2019-01-25T02:05:55.298Z,36.68
2019-01-25T02:08:27.300Z,49.75
2019-01-25T02:10:56.474Z,43.58
2019-01-25T02:13:34.577Z,40.92
2019-01-25T02:16:03.720Z,41.00
2019-01-25T02:18:33.045Z,49.75
2019-01-25T02:21:03.256Z,54.98
2019-01-25T02:23:37.751Z,47.65
2019-01-25T02:26:06.882Z,42.60
2019-01-25T02:28:35.878Z,49.93
2019-01-25T02:31:05.318Z,41.25
2019-01-25T02:33:34.183Z,41.45
2019-01-25T02:36:03.075Z,52.58
2019-01-25T02:38:31.993Z,44.98
2019-01-25T02:41:01.146Z,41.05
2019-01-25T02:43:30.219Z,38.53
2019-01-25T02:45:59.196Z,47.83
2019-01-25T02:48:28.272Z,35.38
2019-01-25T02:50:57.221Z,48.15
2019-01-25T02:53:26.158Z,49.58
2019-01-25T02:55:56.372Z,47.30
2019-01-25T02:58:25.447Z,47.15
2019-01-25T03:00:54.631Z,48.35
2019-01-25T03:03:29.205Z,51.55
2019-01-25T03:05:58.257Z,38.28
2019-01-25T03:08:27.392Z,50.05
2019-01-25T03:10:56.506Z,42.78
2019-01-25T03:13:25.648Z,39.92
2019-01-25T03:15:54.627Z,43.90
2019-01-25T03:18:23.777Z,50.17
2019-01-25T03:20:57.269Z,47.60
2019-01-25T03:23:26.573Z,45.23
2019-01-25T03:25:55.559Z,38.63
2019-01-25T03:28:24.607Z,59.42
2019-01-25T03:30:53.700Z,40.63
2019-01-25T03:33:22.925Z,39.63
2019-01-25T03:35:51.991Z,43.75
2019-01-25T03:38:21.110Z,36.60
2019-01-25T03:40:54.999Z,42.78
2019-01-25T03:43:22.856Z,41.55
2019-01-25T03:45:52.473Z,40.28
2019-01-25T03:48:21.573Z,48.08
2019-01-25T03:50:50.599Z,45.90
2019-01-25T03:53:19.641Z,55.67
2019-01-25T03:55:48.849Z,55.70
2019-01-25T03:58:17.869Z,47.70
2019-01-25T04:00:47.231Z,48.80
2019-01-25T04:03:19.173Z,40.50
2019-01-25T04:05:48.424Z,68.55
2019-01-25T04:08:17.237Z,49.83
2019-01-25T04:10:46.296Z,63.38
2019-01-25T04:13:18.274Z,43.28
2019-01-25T04:15:47.542Z,50.38
2019-01-25T04:18:16.756Z,64.42
2019-01-25T04:20:46.898Z,56.92
2019-01-25T04:23:17.059Z,46.00
2019-01-25T04:25:59.258Z,43.08
2019-01-25T04:28:28.185Z,44.35
2019-01-25T04:30:57.474Z,37.25
2019-01-25T04:33:32.668Z,43.70
2019-01-25T04:36:01.636Z,50.92
2019-01-25T04:38:35.102Z,58.35
2019-01-25T04:41:11.571Z,56.05
2019-01-25T04:43:35.419Z,53.98
2019-01-25T04:46:04.541Z,50.23
2019-01-25T04:48:36.950Z,48.17
2019-01-25T04:51:14.074Z,46.05
2019-01-25T04:53:40.282Z,50.85
2019-01-25T04:56:09.216Z,44.50
2019-01-25T04:58:38.214Z,51.92
2019-01-25T05:01:09.586Z,51.23
2019-01-25T05:03:43.080Z,48.83
2019-01-25T05:06:09.533Z,53.78
2019-01-25T05:08:38.529Z,65.00
2019-01-25T05:11:19.940Z,51.90
2019-01-25T05:13:47.027Z,39.73
2019-01-25T05:16:16.692Z,48.90
2019-01-25T05:18:45.644Z,46.55
2019-01-25T05:21:24.901Z,37.90
2019-01-25T05:23:54.516Z,52.13
2019-01-25T05:26:23.817Z,45.52
2019-01-25T05:28:53.810Z,63.00
2019-01-25T05:31:28.122Z,49.40
2019-01-25T05:34:00.674Z,40.85
2019-01-25T05:36:29.772Z,47.65
2019-01-25T05:38:59.011Z,48.08
2019-01-25T05:41:28.870Z,39.03
2019-01-25T05:43:58.071Z,39.25
2019-01-25T05:46:27.368Z,51.30
2019-01-25T05:48:56.587Z,47.08
2019-01-25T05:51:25.418Z,50.05
2019-01-25T05:53:54.611Z,44.05
2019-01-25T05:56:23.902Z,49.45
2019-01-25T05:58:53.024Z,51.28
2019-01-25T06:01:22.108Z,47.85
2019-01-25T06:03:51.260Z,55.70
2019-01-25T06:06:20.485Z,50.63
2019-01-25T06:08:49.807Z,56.90
2019-01-25T06:11:19.041Z,55.00
2019-01-25T06:13:48.502Z,62.20
2019-01-25T06:16:22.113Z,52.25
2019-01-25T06:18:51.552Z,44.85
2019-01-25T06:21:21.164Z,43.48
2019-01-25T06:23:56.063Z,63.25
2019-01-25T06:26:25.258Z,50.58
2019-01-25T06:28:59.749Z,51.83
2019-01-25T06:31:28.985Z,50.10
2019-01-25T06:33:59.865Z,48.05
2019-01-25T06:36:30.641Z,41.98
2019-01-25T06:38:59.855Z,56.23
2019-01-25T06:41:29.163Z,52.30
2019-01-25T06:43:58.193Z,67.80
2019-01-25T06:46:27.215Z,58.33
2019-01-25T06:48:56.278Z,47.50
2019-01-25T06:51:25.314Z,48.58
2019-01-25T06:53:54.173Z,56.70
2019-01-25T06:56:23.108Z,56.23
2019-01-25T06:59:14.027Z,54.25
2019-01-25T07:01:54.091Z,51.68
2019-01-25T07:04:23.001Z,54.77
2019-01-25T07:06:51.897Z,60.52
2019-01-25T07:09:20.761Z,53.10
2019-01-25T07:11:51.781Z,56.90
2019-01-25T07:14:21.829Z,48.73
2019-01-25T07:16:50.889Z,52.55
2019-01-25T07:19:23.095Z,57.45
2019-01-25T07:21:52.060Z,59.00
2019-01-25T07:24:20.943Z,45.12
2019-01-25T07:26:49.840Z,49.48
2019-01-25T07:29:18.721Z,48.83
2019-01-25T07:31:47.656Z,57.85
2019-01-25T07:34:16.558Z,68.72
2019-01-25T07:36:45.496Z,55.20
2019-01-25T07:39:26.192Z,52.05
2019-01-25T07:41:59.157Z,43.52
2019-01-25T07:44:25.732Z,37.60
2019-01-25T07:46:54.606Z,33.70
2019-01-25T07:49:23.558Z,40.85
2019-01-25T07:51:52.809Z,32.05
2019-01-25T07:54:21.700Z,37.50
2019-01-25T07:56:50.639Z,34.58
2019-01-25T07:59:19.514Z,35.75
2019-01-25T08:01:48.464Z,44.70
2019-01-25T08:04:17.645Z,41.35
2019-01-25T08:06:46.648Z,42.85
2019-01-25T08:09:15.593Z,36.35
2019-01-25T08:11:44.719Z,40.67
2019-01-25T08:14:13.652Z,43.83
2019-01-25T08:16:42.505Z,36.80
2019-01-25T08:19:11.409Z,41.08
2019-01-25T08:21:40.387Z,37.70
2019-01-25T08:24:09.427Z,35.58
2019-01-25T08:26:39.316Z,35.83
2019-01-25T08:29:08.394Z,40.12
2019-01-25T08:31:37.309Z,41.83
2019-01-25T08:34:06.302Z,38.50
2019-01-25T08:36:35.394Z,38.48
2019-01-25T08:39:07.861Z,43.60
2019-01-25T08:41:36.750Z,49.08
2019-01-25T08:44:05.833Z,32.70
2019-01-25T08:46:34.765Z,39.15
2019-01-25T08:49:03.665Z,33.98
2019-01-25T08:51:32.445Z,39.58
2019-01-25T08:54:01.352Z,35.65
2019-01-25T08:56:30.364Z,43.70
2019-01-25T08:58:59.451Z,55.35
2019-01-25T09:01:28.630Z,44.85
2019-01-25T09:03:57.531Z,35.17
2019-01-25T09:06:26.397Z,41.15
2019-01-25T09:08:55.257Z,43.52
2019-01-25T09:11:24.255Z,36.20
2019-01-25T09:13:53.071Z,45.38
2019-01-25T09:16:21.930Z,33.80
2019-01-25T09:18:50.775Z,56.10
2019-01-25T09:21:19.601Z,30.52
2019-01-25T09:23:48.399Z,35.92
2019-01-25T09:26:17.223Z,46.18
2019-01-25T09:28:46.104Z,44.30
2019-01-25T09:31:14.894Z,39.92
2019-01-25T09:33:44.157Z,38.85
2019-01-25T09:36:13.284Z,40.43
2019-01-25T09:38:42.255Z,29.40
2019-01-25T09:41:11.168Z,43.58
2019-01-25T09:43:40.059Z,41.55
2019-01-25T09:46:08.876Z,38.78
2019-01-25T09:48:40.367Z,35.83
2019-01-25T09:51:09.191Z,43.00
2019-01-25T09:53:38.183Z,37.00
2019-01-25T09:56:07.207Z,37.05
2019-01-25T09:58:38.905Z,40.30
2019-01-25T10:01:09.835Z,43.30
2019-01-25T10:03:39.019Z,32.48
2019-01-25T10:06:08.279Z,38.23
2019-01-25T10:08:37.273Z,40.33
2019-01-25T10:11:06.409Z,37.83
2019-01-25T10:13:35.183Z,37.93
2019-01-25T10:16:04.850Z,35.28
2019-01-25T10:18:33.797Z,42.33
2019-01-25T10:21:02.839Z,44.13
2019-01-25T10:23:31.610Z,41.68
2019-01-25T10:26:00.522Z,43.95
2019-01-25T10:28:29.435Z,51.13
2019-01-25T10:30:58.581Z,45.58
2019-01-25T10:33:27.548Z,39.90
2019-01-25T10:35:57.977Z,41.58
2019-01-25T10:38:26.906Z,36.95
2019-01-25T10:40:58.825Z,36.03
2019-01-25T10:43:27.808Z,41.13
2019-01-25T10:45:56.633Z,34.55
2019-01-25T10:48:26.000Z,36.95
2019-01-25T10:50:56.027Z,44.20
2019-01-25T10:53:24.861Z,41.50
2019-01-25T10:55:57.073Z,40.92
2019-01-25T10:58:25.983Z,32.23
2019-01-25T11:00:57.984Z,41.28
2019-01-25T11:03:27.595Z,43.25
2019-01-25T11:05:56.799Z,40.17
2019-01-25T11:08:25.708Z,45.15
2019-01-25T11:10:54.566Z,48.08
2019-01-25T11:13:26.512Z,42.55
2019-01-25T11:15:55.476Z,46.13
2019-01-25T11:18:24.414Z,47.75
2019-01-25T11:20:53.270Z,43.70
2019-01-25T11:23:22.738Z,35.28
2019-01-25T11:25:52.038Z,35.08
2019-01-25T11:28:21.004Z,36.33
2019-01-25T11:30:49.993Z,34.53
2019-01-25T11:33:18.938Z,38.65
2019-01-25T11:35:47.839Z,41.65
2019-01-25T11:38:16.657Z,32.88
2019-01-25T11:40:45.849Z,34.78
2019-01-25T11:43:14.749Z,47.43
2019-01-25T11:45:43.814Z,33.95
2019-01-25T11:48:14.610Z,37.45
2019-01-25T11:50:43.744Z,40.40
2019-01-25T11:53:12.802Z,35.08
2019-01-25T11:55:41.857Z,32.63
2019-01-25T11:58:10.861Z,32.10
2019-01-25T12:00:43.031Z,44.25
2019-01-25T12:03:11.948Z,36.38
2019-01-25T12:05:40.907Z,33.00
2019-01-25T12:08:09.942Z,35.38
2019-01-25T12:10:38.953Z,44.50
2019-01-25T12:13:16.059Z,34.88
2019-01-25T12:15:41.459Z,36.93
2019-01-25T12:18:10.493Z,29.80
2019-01-25T12:20:39.508Z,29.85
2019-01-25T12:23:08.384Z,35.23
2019-01-25T12:25:37.155Z,30.65
2019-01-25T12:28:06.025Z,30.52
2019-01-25T12:30:39.090Z,37.95
2019-01-25T12:33:09.164Z,32.75
2019-01-25T12:35:40.328Z,30.45
2019-01-25T12:38:09.161Z,39.90
2019-01-25T12:40:42.119Z,35.65
2019-01-25T12:43:08.680Z,35.00
2019-01-25T12:45:37.532Z,39.85
2019-01-25T12:48:06.632Z,32.23
2019-01-25T12:51:00.213Z,32.15
2019-01-25T12:53:29.373Z,39.33
2019-01-25T12:55:58.167Z,36.28
2019-01-25T12:58:27.078Z,50.83
2019-01-25T13:00:55.889Z,44.25
2019-01-25T13:03:24.728Z,36.42
2019-01-25T13:05:53.877Z,35.88
2019-01-25T13:08:22.843Z,42.13
2019-01-25T13:10:51.863Z,33.48
2019-01-25T13:13:20.843Z,43.00
2019-01-25T13:15:49.863Z,47.03
2019-01-25T13:18:18.689Z,43.70
2019-01-25T13:20:47.650Z,39.70
2019-01-25T13:23:16.527Z,46.28
2019-01-25T13:25:47.221Z,46.30
2019-01-25T13:28:16.253Z,39.30
2019-01-25T13:30:45.243Z,46.60
2019-01-25T13:33:14.138Z,40.17
2019-01-25T13:35:42.943Z,44.80
2019-01-25T13:38:11.835Z,34.78
2019-01-25T13:40:40.755Z,48.68
2019-01-25T13:43:09.615Z,43.40
2019-01-25T13:45:38.511Z,36.83
2019-01-25T13:48:07.499Z,38.42
2019-01-25T13:50:36.380Z,45.08
2019-01-25T13:53:05.388Z,34.73
2019-01-25T13:55:34.304Z,55.88
2019-01-25T13:58:03.153Z,44.10
2019-01-25T14:00:33.474Z,47.88
2019-01-25T14:03:02.488Z,49.77
2019-01-25T14:05:31.352Z,52.50
2019-01-25T14:08:00.261Z,54.25
2019-01-25T14:10:33.973Z,50.05
2019-01-25T14:13:03.333Z,39.65
2019-01-25T14:15:32.466Z,49.25
2019-01-25T14:18:01.381Z,39.92
2019-01-25T14:20:31.755Z,48.38
2019-01-25T14:23:00.610Z,41.53
2019-01-25T14:25:29.974Z,57.53
2019-01-25T14:27:58.988Z,44.75
2019-01-25T14:30:36.026Z,37.73
2019-01-25T14:33:05.702Z,46.10
2019-01-25T14:35:34.854Z,44.45
2019-01-25T14:38:07.363Z,41.45
2019-01-25T14:40:36.358Z,42.03
2019-01-25T14:43:05.602Z,45.48
2019-01-25T14:45:34.508Z,47.78
2019-01-25T14:48:03.446Z,45.50
2019-01-25T14:50:32.489Z,43.75
2019-01-25T14:53:05.839Z,55.03
2019-01-25T14:55:34.858Z,42.10
2019-01-25T14:58:04.234Z,46.95
2019-01-25T15:00:33.248Z,44.67
2019-01-25T15:03:02.391Z,48.10
2019-01-25T15:05:31.387Z,44.70
2019-01-25T15:08:00.356Z,42.62
2019-01-25T15:10:29.333Z,46.35
2019-01-25T15:12:58.951Z,51.28
2019-01-25T15:15:27.901Z,45.63
2019-01-25T15:17:56.883Z,54.03
2019-01-25T15:20:28.199Z,52.70
2019-01-25T15:22:57.056Z,49.13
2019-01-25T15:25:25.954Z,50.95
2019-01-25T15:27:54.942Z,54.00
2019-01-25T15:30:26.294Z,71.02
2019-01-25T15:32:55.384Z,50.33
2019-01-25T15:35:24.496Z,66.70
2019-01-25T15:37:53.575Z,55.48
2019-01-25T15:40:22.937Z,58.30
2019-01-25T15:42:51.975Z,51.83
2019-01-25T15:45:21.243Z,64.47
2019-01-25T15:47:50.316Z,60.85
2019-01-25T15:50:21.337Z,53.25
2019-01-25T15:52:50.286Z,51.85
2019-01-25T15:55:19.942Z,54.95
2019-01-25T15:57:49.109Z,53.42
2019-01-25T16:00:19.987Z,53.42
2019-01-25T16:02:48.975Z,51.13
2019-01-25T16:05:19.559Z,51.95
2019-01-25T16:07:49.862Z,43.45
2019-01-25T16:10:20.256Z,45.88
2019-01-25T16:12:49.594Z,49.70
2019-01-25T16:15:20.699Z,56.95
2019-01-25T16:17:50.053Z,54.35
2019-01-25T16:20:19.286Z,45.08
2019-01-25T16:22:48.999Z,58.78
2019-01-25T16:25:23.986Z,54.90
2019-01-25T16:27:52.918Z,51.40
2019-01-25T16:30:26.945Z,55.25
2019-01-25T16:32:55.842Z,64.00
2019-01-25T16:35:24.915Z,73.80
2019-01-25T16:37:54.210Z,52.90
2019-01-25T16:40:23.731Z,59.35
2019-01-25T16:43:11.047Z,59.67
2019-01-25T16:45:41.958Z,68.92
2019-01-25T16:48:14.220Z,65.30
2019-01-25T16:50:43.209Z,57.62
2019-01-25T16:53:16.628Z,65.15
2019-01-25T16:55:45.980Z,65.55
2019-01-25T16:58:15.249Z,53.98
2019-01-25T17:00:48.942Z,63.90
2019-01-25T17:03:18.235Z,55.10
2019-01-25T17:05:47.263Z,51.08
2019-01-25T17:08:16.200Z,50.85
2019-01-25T17:10:45.018Z,50.00
2019-01-25T17:13:33.157Z,65.90
2019-01-25T17:16:01.947Z,72.97
2019-01-25T17:18:30.797Z,63.45
2019-01-25T17:20:59.837Z,74.55
2019-01-25T17:23:28.659Z,68.10
2019-01-25T17:25:57.500Z,58.92
2019-01-25T17:28:26.287Z,65.30
2019-01-25T17:30:55.165Z,60.98
2019-01-25T17:33:24.055Z,67.12
2019-01-25T17:35:52.968Z,63.48
2019-01-25T17:38:21.837Z,58.35
2019-01-25T17:40:51.153Z,66.00
2019-01-25T17:43:20.424Z,69.10
2019-01-25T17:45:49.371Z,64.65
2019-01-25T17:48:18.254Z,62.23
2019-01-25T17:50:47.442Z,61.50
2019-01-25T17:53:16.377Z,64.10
2019-01-25T17:55:45.307Z,48.40
2019-01-25T17:58:14.079Z,63.30
2019-01-25T18:00:46.735Z,57.38
2019-01-25T18:03:15.866Z,59.45
2019-01-25T18:05:47.853Z,61.15
2019-01-25T18:08:16.625Z,61.15
2019-01-25T18:10:45.511Z,62.08
2019-01-25T18:13:14.544Z,62.88
2019-01-25T18:15:43.519Z,67.32
2019-01-25T18:18:12.681Z,70.92
2019-01-25T18:20:41.681Z,78.83
2019-01-25T18:23:10.502Z,61.35
2019-01-25T18:25:45.341Z,72.32
2019-01-25T18:28:18.097Z,68.52
2019-01-25T18:31:08.914Z,65.92
2019-01-25T18:33:37.929Z,63.05
2019-01-25T18:36:10.158Z,70.03
2019-01-25T18:38:39.074Z,67.95
2019-01-25T18:41:08.213Z,64.10
2019-01-25T18:43:37.096Z,59.15
2019-01-25T18:46:06.295Z,58.70
2019-01-25T18:48:35.120Z,61.45
2019-01-25T18:51:04.048Z,62.13
2019-01-25T18:53:32.901Z,71.05
2019-01-25T18:56:02.032Z,65.67
2019-01-25T18:58:30.812Z,63.83
2019-01-25T19:00:59.590Z,68.83
2019-01-25T19:03:28.669Z,65.62
2019-01-25T19:05:57.500Z,62.08
2019-01-25T19:08:26.472Z,58.80
2019-01-25T19:10:55.398Z,72.58
2019-01-25T19:13:24.370Z,71.25
2019-01-25T19:15:53.468Z,69.35
2019-01-25T19:18:22.452Z,65.85
2019-01-25T19:20:51.288Z,58.63
2019-01-25T19:23:20.160Z,76.15
2019-01-25T19:25:48.976Z,64.67
2019-01-25T19:28:17.969Z,75.28
2019-01-25T19:30:52.498Z,84.20
2019-01-25T19:33:21.396Z,69.87
2019-01-25T19:35:50.176Z,69.03
2019-01-25T19:38:24.233Z,60.28
2019-01-25T19:40:53.813Z,76.80
2019-01-25T19:43:24.641Z,65.25
2019-01-25T19:45:53.609Z,63.23
2019-01-25T19:48:22.737Z,54.23
2019-01-25T19:50:51.555Z,57.27
2019-01-25T19:53:20.449Z,42.38
2019-01-25T19:55:49.786Z,56.20
2019-01-25T19:58:19.393Z,60.20
2019-01-25T20:00:48.445Z,45.60
2019-01-25T20:03:18.408Z,40.45
2019-01-25T20:05:49.659Z,42.85
2019-01-25T20:08:18.537Z,46.60
2019-01-25T20:10:47.423Z,36.75
2019-01-25T20:13:16.259Z,50.75
2019-01-25T20:15:45.271Z,42.20
2019-01-25T20:18:14.569Z,40.10
2019-01-25T20:20:43.642Z,36.33
2019-01-25T20:23:13.029Z,42.95
2019-01-25T20:25:42.001Z,35.95
2019-01-25T20:28:12.012Z,36.73
2019-01-25T20:30:41.097Z,36.08
2019-01-25T20:33:10.327Z,42.43
2019-01-25T20:35:41.096Z,37.67
2019-01-25T20:38:10.365Z,32.33
2019-01-25T20:40:39.407Z,43.68
2019-01-25T20:43:08.567Z,40.95
2019-01-25T20:45:38.929Z,34.40
2019-01-25T20:48:08.409Z,29.65
2019-01-25T20:50:37.463Z,38.95
2019-01-25T20:53:07.761Z,28.07
2019-01-25T20:55:39.723Z,50.60
2019-01-25T20:58:09.379Z,33.92
2019-01-25T21:00:39.564Z,31.02
2019-01-25T21:03:12.104Z,33.50
2019-01-25T21:05:41.956Z,39.65
2019-01-25T21:08:11.681Z,31.57
2019-01-25T21:10:40.826Z,34.25
2019-01-25T21:13:09.998Z,42.25
2019-01-25T21:15:39.064Z,34.92
2019-01-25T21:18:08.138Z,40.23
2019-01-25T21:20:39.630Z,35.63
2019-01-25T21:23:08.782Z,36.17
2019-01-25T21:25:38.085Z,36.88
2019-01-25T21:28:07.348Z,48.45
2019-01-25T21:30:36.791Z,34.18
2019-01-25T21:33:06.480Z,37.28
2019-01-25T21:35:35.716Z,30.48
2019-01-25T21:38:05.623Z,34.27
2019-01-25T21:40:35.388Z,25.77
2019-01-25T21:43:04.690Z,40.12
2019-01-25T21:45:42.663Z,43.70
2019-01-25T21:48:14.910Z,34.58
2019-01-25T21:50:44.815Z,33.88
2019-01-25T21:53:14.030Z,30.90
2019-01-25T21:55:44.188Z,33.40
2019-01-25T21:58:13.737Z,31.30
2019-01-25T22:00:43.744Z,32.78
2019-01-25T22:03:14.734Z,42.93
2019-01-25T22:05:43.754Z,37.35
2019-01-25T22:08:13.451Z,39.33
2019-01-25T22:10:50.238Z,39.98
2019-01-25T22:13:19.382Z,33.58
2019-01-25T22:15:51.186Z,38.48
2019-01-25T22:18:22.964Z,28.10
2019-01-25T22:20:52.130Z,40.48
2019-01-25T22:23:20.990Z,33.25
2019-01-25T22:25:52.016Z,41.10
2019-01-25T22:28:22.540Z,40.33
2019-01-25T22:30:53.481Z,33.35
2019-01-25T22:33:22.637Z,36.90
2019-01-25T22:35:51.780Z,34.95
2019-01-25T22:38:21.152Z,40.73
2019-01-25T22:40:50.644Z,44.73
2019-01-25T22:43:19.855Z,34.23
2019-01-25T22:45:48.903Z,42.05
2019-01-25T22:48:17.923Z,44.08
2019-01-25T22:50:50.070Z,57.17
2019-01-25T22:53:19.309Z,42.43
2019-01-25T22:55:48.433Z,42.62
2019-01-25T22:58:19.277Z,41.60
2019-01-25T23:01:30.372Z,42.90
2019-01-25T23:04:12.664Z,37.28
2019-01-25T23:07:04.100Z,40.50
2019-01-25T23:09:35.632Z,47.75
2019-01-25T23:12:05.426Z,37.93
2019-01-25T23:14:34.364Z,41.35
2019-01-25T23:17:03.440Z,48.52
2019-01-25T23:19:32.376Z,47.15
2019-01-25T23:22:01.434Z,52.13
2019-01-25T23:24:30.359Z,52.67
2019-01-25T23:26:59.279Z,50.35
2019-01-25T23:29:28.313Z,53.95
2019-01-25T23:31:57.483Z,59.85
2019-01-25T23:34:26.477Z,44.85
2019-01-25T23:36:55.309Z,48.68
2019-01-25T23:39:24.151Z,51.70
2019-01-25T23:41:53.017Z,45.63
2019-01-25T23:44:21.889Z,42.98
2019-01-25T23:46:50.705Z,40.43
2019-01-25T23:49:19.535Z,51.08
2019-01-25T23:51:48.469Z,49.67
2019-01-25T23:54:17.464Z,42.55
2019-01-25T23:56:46.325Z,40.15
2019-01-25T23:59:15.167Z,41.90
